Time;durP1;ratioP1;P1;durP2;ratioP2;P2;SDS_P1;SDS_P2;PMS_P1;PMS_P2;Temp;Humidity;BMP_temperature;BMP_pressure;BME280_temperature;BME280_humidity;BME280_pressure;Samples;Min_cycle;Max_cycle;Signal;HPM_P1;HPM_P2
2022/05/25 00:02:25;;;;;;;;;16.00;16.00;;;;;;;;5141270;27;10596;-78
2022/05/25 00:04:51;;;;;;;;;17.50;14.25;;;;;;;;5140899;27;10350;-79
2022/05/25 00:07:16;;;;;;;;;16.50;15.00;;;;;;;;5122638;27;14599;-77
2022/05/25 00:09:42;;;;;;;;;13.00;12.25;;;;;;;;5141174;27;12033;-78
2022/05/25 00:12:08;;;;;;;;;15.75;15.00;;;;;;;;5140791;27;12030;-77
2022/05/25 00:14:34;;;;;;;;;15.25;14.25;;;;;;;;5122041;27;11811;-79
2022/05/25 00:16:59;;;;;;;;;18.00;15.25;;;;;;;;5140699;27;11691;-77
2022/05/25 00:22:09;;;;;;;;;15.50;13.25;;;;;;;;5140803;27;10365;-77
2022/05/25 00:24:34;;;;;;;;;17.50;13.75;;;;;;;;5140445;27;10664;-79
2022/05/25 00:27:00;;;;;;;;;16.50;16.50;;;;;;;;5140460;27;10612;-77
2022/05/25 00:29:25;;;;;;;;;17.50;14.75;;;;;;;;5141019;27;11424;-77
2022/05/25 00:31:51;;;;;;;;;13.00;13.00;;;;;;;;5141112;27;12699;-79
2022/05/25 00:34:16;;;;;;;;;16.50;13.25;;;;;;;;5140957;27;12844;-79
2022/05/25 00:36:41;;;;;;;;;13.75;13.75;;;;;;;;5140874;27;11559;-78
2022/05/25 00:39:07;;;;;;;;;14.25;13.00;;;;;;;;5141227;27;11034;-78
2022/05/25 00:41:32;;;;;;;;;10.75;9.25;;;;;;;;5140602;27;11533;-78
2022/05/25 00:43:58;;;;;;;;;15.25;14.00;;;;;;;;5140331;27;22379;-79
2022/05/25 00:46:24;;;;;;;;;19.00;14.25;;;;;;;;5121695;27;21771;-84
2022/05/25 00:48:55;;;;;;;;;18.75;16.00;;;;;;;;5140710;27;11728;-85
2022/05/25 00:51:24;;;;;;;;;16.25;14.00;;;;;;;;5141044;27;12948;-85
2022/05/25 00:54:13;;;;;;;;;16.75;14.25;;;;;;;;5121604;27;12039;-85
2022/05/25 00:56:40;;;;;;;;;13.00;13.00;;;;;;;;5092542;27;10563;-85
2022/05/25 00:59:10;;;;;;;;;14.25;13.75;;;;;;;;5141367;27;11953;-84
2022/05/25 01:01:36;;;;;;;;;19.25;14.50;;;;;;;;5141003;27;11615;-86
2022/05/25 01:04:01;;;;;;;;;17.75;16.25;;;;;;;;5121949;27;13596;-84
2022/05/25 01:06:38;;;;;;;;;23.00;15.00;;;;;;;;5140981;27;12096;-84
2022/05/25 01:09:22;;;;;;;;;17.50;16.50;;;;;;;;5140475;27;13302;-86
2022/05/25 01:11:47;;;;;;;;;17.75;13.00;;;;;;;;5140904;27;13259;-85
2022/05/25 01:14:22;;;;;;;;;12.25;11.50;;;;;;;;5123193;27;10694;-86
2022/05/25 01:16:47;;;;;;;;;17.00;13.50;;;;;;;;5140844;27;11451;-84
2022/05/25 01:19:24;;;;;;;;;16.75;13.75;;;;;;;;5140128;27;11462;-85
2022/05/25 01:22:00;;;;;;;;;16.75;15.25;;;;;;;;5139489;27;11458;-86
2022/05/25 01:24:32;;;;;;;;;16.75;13.75;;;;;;;;5140833;27;10421;-85
2022/05/25 01:27:23;;;;;;;;;12.50;12.50;;;;;;;;5140215;27;10393;-83
2022/05/25 01:29:49;;;;;;;;;18.00;13.75;;;;;;;;5139709;27;12019;-84
2022/05/25 01:32:31;;;;;;;;;18.25;17.00;;;;;;;;5121072;27;11788;-85
2022/05/25 01:35:03;;;;;;;;;12.75;11.00;;;;;;;;5122084;27;10668;-84
2022/05/25 01:37:32;;;;;;;;;18.50;17.00;;;;;;;;5121319;27;10507;-85
2022/05/25 01:40:09;;;;;;;;;13.50;13.50;;;;;;;;5139898;27;10933;-85
2022/05/25 01:42:39;;;;;;;;;13.50;13.00;;;;;;;;5121301;27;12000;-84
2022/05/25 01:45:07;;;;;;;;;18.75;15.25;;;;;;;;5140556;27;10393;-85
2022/05/25 01:47:33;;;;;;;;;15.75;14.25;;;;;;;;5121264;27;13938;-87
2022/05/25 01:50:09;;;;;;;;;14.00;13.75;;;;;;;;5140022;27;11291;-85
2022/05/25 01:52:39;;;;;;;;;17.25;14.25;;;;;;;;5139846;27;10949;-85
2022/05/25 01:55:08;;;;;;;;;13.25;13.25;;;;;;;;5140342;27;10682;-86
2022/05/25 01:57:36;;;;;;;;;13.75;13.50;;;;;;;;5139976;27;10560;-86
2022/05/25 02:00:02;;;;;;;;;17.75;15.00;;;;;;;;5139767;27;10389;-85
2022/05/25 02:05:15;;;;;;;;;15.25;13.00;;;;;;;;5139343;27;10596;-86
2022/05/25 02:07:59;;;;;;;;;14.00;12.75;;;;;;;;5139738;27;10419;-86
2022/05/25 02:10:24;;;;;;;;;17.75;13.50;;;;;;;;5121170;27;14216;-85
2022/05/25 02:12:52;;;;;;;;;17.50;12.75;;;;;;;;5139348;27;11578;-85
2022/05/25 02:15:20;;;;;;;;;19.25;15.00;;;;;;;;5139204;27;10670;-86
2022/05/25 02:18:04;;;;;;;;;14.25;12.50;;;;;;;;5140066;27;11517;-85
2022/05/25 02:20:38;;;;;;;;;16.75;16.00;;;;;;;;5138963;27;11856;-83
2022/05/25 02:23:07;;;;;;;;;14.25;14.25;;;;;;;;5139849;27;12030;-85
2022/05/25 02:25:45;;;;;;;;;16.75;14.50;;;;;;;;5139526;27;11467;-85
2022/05/25 02:28:13;;;;;;;;;18.00;13.75;;;;;;;;5139299;27;11601;-87
2022/05/25 02:30:41;;;;;;;;;13.25;12.00;;;;;;;;5139476;27;12029;-87
2022/05/25 02:33:13;;;;;;;;;15.00;13.00;;;;;;;;5140323;27;11497;-85
2022/05/25 02:35:40;;;;;;;;;13.00;13.00;;;;;;;;5142971;27;10658;-85
2022/05/25 02:38:06;;;;;;;;;17.50;12.00;;;;;;;;5124943;27;10511;-85
2022/05/25 02:40:32;;;;;;;;;17.25;13.75;;;;;;;;5143239;27;10490;-86
2022/05/25 02:42:58;;;;;;;;;13.25;11.75;;;;;;;;5124341;27;10663;-85
2022/05/25 02:45:23;;;;;;;;;14.50;12.75;;;;;;;;5124423;27;11024;-87
2022/05/25 02:47:50;;;;;;;;;16.75;16.00;;;;;;;;5142636;27;10364;-86
2022/05/25 02:50:15;;;;;;;;;20.50;17.75;;;;;;;;5143191;27;11827;-85
2022/05/25 02:52:41;;;;;;;;;16.00;15.25;;;;;;;;5143541;27;13758;-85
2022/05/25 02:55:07;;;;;;;;;16.00;15.50;;;;;;;;5143356;27;12364;-85
2022/05/25 02:57:33;;;;;;;;;21.25;16.75;;;;;;;;5143977;27;8912;-85
2022/05/25 02:59:58;;;;;;;;;17.00;15.75;;;;;;;;5144618;27;13361;-84
2022/05/25 03:02:24;;;;;;;;;17.00;14.25;;;;;;;;5143691;27;13423;-85
2022/05/25 03:04:50;;;;;;;;;18.25;13.75;;;;;;;;5123940;27;8790;-85
2022/05/25 03:07:16;;;;;;;;;15.50;15.50;;;;;;;;5143033;27;10922;-85
2022/05/25 03:09:41;;;;;;;;;17.25;16.50;;;;;;;;5143000;27;11783;-87
2022/05/25 03:12:07;;;;;;;;;16.75;13.75;;;;;;;;5142375;27;10554;-85
2022/05/25 03:14:33;;;;;;;;;14.00;12.50;;;;;;;;5142507;27;12734;-86
2022/05/25 03:17:04;;;;;;;;;16.25;16.25;;;;;;;;5123336;27;13846;-86
2022/05/25 03:19:30;;;;;;;;;17.75;16.75;;;;;;;;5143042;27;11518;-86
2022/05/25 03:21:55;;;;;;;;;19.00;16.75;;;;;;;;5142832;27;10983;-86
2022/05/25 03:24:23;;;;;;;;;15.75;15.00;;;;;;;;5143186;27;8913;-86
2022/05/25 03:26:55;;;;;;;;;15.75;15.25;;;;;;;;5123257;27;11951;-85
2022/05/25 03:29:23;;;;;;;;;21.50;15.75;;;;;;;;5144064;27;10786;-86
2022/05/25 03:31:50;;;;;;;;;16.00;15.00;;;;;;;;5155920;27;12489;-85
2022/05/25 03:34:17;;;;;;;;;16.25;13.00;;;;;;;;5125138;27;13833;-85
2022/05/25 03:36:42;;;;;;;;;16.25;12.75;;;;;;;;5142878;27;10694;-86
2022/05/25 03:39:07;;;;;;;;;20.50;16.00;;;;;;;;5143070;27;11008;-80
2022/05/25 03:41:33;;;;;;;;;20.75;17.00;;;;;;;;5142068;27;13640;-81
2022/05/25 03:43:58;;;;;;;;;17.75;17.00;;;;;;;;5141096;27;9497;-77
2022/05/25 03:46:23;;;;;;;;;18.00;17.50;;;;;;;;5122109;27;11149;-77
2022/05/25 03:48:49;;;;;;;;;22.50;16.00;;;;;;;;5141812;27;11602;-77
2022/05/25 03:51:14;;;;;;;;;21.25;19.50;;;;;;;;5141780;27;13535;-78
2022/05/25 03:53:40;;;;;;;;;12.50;12.00;;;;;;;;5141740;27;11362;-78
2022/05/25 03:56:06;;;;;;;;;17.75;15.00;;;;;;;;5141600;27;13531;-77
2022/05/25 03:58:31;;;;;;;;;16.75;15.00;;;;;;;;5141248;27;11454;-77
2022/05/25 04:00:57;;;;;;;;;17.00;15.00;;;;;;;;5140415;27;8786;-79
2022/05/25 04:03:22;;;;;;;;;19.50;17.00;;;;;;;;5139940;27;9537;-80
2022/05/25 04:05:48;;;;;;;;;20.00;17.75;;;;;;;;5140733;27;10346;-91
2022/05/25 04:08:13;;;;;;;;;16.75;13.75;;;;;;;;5143229;27;13893;-88
2022/05/25 04:10:38;;;;;;;;;18.75;17.00;;;;;;;;5141247;27;12174;-89
2022/05/25 04:13:04;;;;;;;;;22.00;17.75;;;;;;;;5143488;27;11563;-88
2022/05/25 04:15:30;;;;;;;;;20.75;17.00;;;;;;;;5143573;27;14761;-85
2022/05/25 04:17:55;;;;;;;;;25.00;19.00;;;;;;;;5124199;27;13943;-92
2022/05/25 04:20:21;;;;;;;;;17.25;16.75;;;;;;;;5141719;27;11841;-89
2022/05/25 04:22:47;;;;;;;;;20.75;18.00;;;;;;;;5142646;27;13709;-91
2022/05/25 04:25:14;;;;;;;;;23.75;19.75;;;;;;;;5138523;27;13863;-76
2022/05/25 04:27:41;;;;;;;;;21.00;15.75;;;;;;;;5130680;27;12124;-75
2022/05/25 04:30:08;;;;;;;;;18.25;17.25;;;;;;;;5101449;28;10970;-82
2022/05/25 04:32:33;;;;;;;;;21.50;19.00;;;;;;;;5120192;28;12726;-78
2022/05/25 04:34:58;;;;;;;;;19.25;18.25;;;;;;;;5121076;28;13220;-77
2022/05/25 04:40:09;;;;;;;;;29.00;24.25;;;;;;;;5135651;27;13250;-75
2022/05/25 04:42:34;;;;;;;;;21.50;17.50;;;;;;;;5139071;27;12876;-72
2022/05/25 04:45:03;;;;;;;;;22.00;21.00;;;;;;;;5138904;27;12169;-74
2022/05/25 04:47:28;;;;;;;;;19.25;17.75;;;;;;;;5137988;27;12274;-73
2022/05/25 04:49:53;;;;;;;;;27.25;26.75;;;;;;;;5138655;27;13373;-73
2022/05/25 04:52:20;;;;;;;;;20.25;18.50;;;;;;;;5138756;27;10617;-73
2022/05/25 04:54:45;;;;;;;;;20.25;18.75;;;;;;;;5138914;27;12676;-73
2022/05/25 04:57:20;;;;;;;;;21.50;20.25;;;;;;;;5133454;27;10902;-72
2022/05/25 04:59:49;;;;;;;;;23.00;19.50;;;;;;;;5118677;27;11486;-74
2022/05/25 05:02:14;;;;;;;;;22.25;16.25;;;;;;;;5139074;27;12289;-75
2022/05/25 05:04:40;;;;;;;;;18.00;18.00;;;;;;;;5138904;27;11709;-74
2022/05/25 05:07:05;;;;;;;;;20.25;19.00;;;;;;;;5138822;27;13283;-75
2022/05/25 05:09:34;;;;;;;;;19.75;17.75;;;;;;;;5138664;27;12252;-75
2022/05/25 05:11:59;;;;;;;;;18.50;18.50;;;;;;;;5136268;27;13525;-76
2022/05/25 05:14:25;;;;;;;;;27.50;20.00;;;;;;;;5102540;27;11807;-75
2022/05/25 05:17:00;;;;;;;;;22.75;22.75;;;;;;;;5137868;27;14645;-75
2022/05/25 05:19:27;;;;;;;;;29.25;26.25;;;;;;;;5137111;27;12150;-80
2022/05/25 05:21:57;;;;;;;;;29.50;21.75;;;;;;;;5120309;27;12457;-83
2022/05/25 05:24:22;;;;;;;;;28.50;25.00;;;;;;;;5120595;27;11068;-77
2022/05/25 05:26:48;;;;;;;;;24.00;20.00;;;;;;;;5138905;27;11445;-74
2022/05/25 05:29:13;;;;;;;;;24.75;23.25;;;;;;;;5139266;27;10367;-73
2022/05/25 05:31:38;;;;;;;;;22.75;19.25;;;;;;;;5120203;27;10922;-82
2022/05/25 05:34:04;;;;;;;;;26.00;23.00;;;;;;;;5139399;27;9542;-74
2022/05/25 05:36:50;;;;;;;;;19.25;19.25;;;;;;;;5136707;27;12208;-80
2022/05/25 05:39:17;;;;;;;;;24.50;22.50;;;;;;;;5130390;27;13373;-76
2022/05/25 05:41:44;;;;;;;;;25.25;23.75;;;;;;;;5096636;27;13663;-73
2022/05/25 05:44:12;;;;;;;;;19.75;17.75;;;;;;;;5137752;27;11656;-78
2022/05/25 05:46:41;;;;;;;;;17.75;15.75;;;;;;;;5139073;27;11565;-78
2022/05/25 05:49:07;;;;;;;;;23.00;19.50;;;;;;;;5139042;27;10875;-81
2022/05/25 05:51:32;;;;;;;;;18.00;17.50;;;;;;;;5138952;27;13571;-86
2022/05/25 05:53:57;;;;;;;;;18.50;17.00;;;;;;;;5138413;27;10342;-73
2022/05/25 05:56:23;;;;;;;;;20.00;17.00;;;;;;;;5138833;27;8871;-77
2022/05/25 05:58:48;;;;;;;;;18.25;18.25;;;;;;;;5139069;27;11088;-77
2022/05/25 06:01:13;;;;;;;;;20.50;17.50;;;;;;;;5138826;27;13217;-76
2022/05/25 06:03:39;;;;;;;;;21.25;18.75;;;;;;;;5119821;27;13696;-78
2022/05/25 06:06:04;;;;;;;;;19.25;17.25;;;;;;;;5119754;27;12098;-79
2022/05/25 06:08:32;;;;;;;;;20.25;17.50;;;;;;;;5118435;27;14082;-86
2022/05/25 06:11:00;;;;;;;;;19.75;17.00;;;;;;;;5133309;27;13538;-79
2022/05/25 06:13:25;;;;;;;;;18.25;15.25;;;;;;;;5119164;27;13883;-80
2022/05/25 06:21:28;;;;;;;;;20.00;18.00;;;;;;;;5139944;27;14198;-82
2022/05/25 06:23:54;;;;;;;;;20.00;17.00;;;;;;;;5120963;27;11227;-81
2022/05/25 06:26:19;;;;;;;;;22.00;17.50;;;;;;;;5139744;27;8782;-83
2022/05/25 06:28:45;;;;;;;;;16.75;15.25;;;;;;;;5139855;27;11369;-85
2022/05/25 06:31:11;;;;;;;;;25.00;20.75;;;;;;;;5139636;27;13384;-79
2022/05/25 06:33:39;;;;;;;;;37.00;32.00;;;;;;;;5139059;27;12811;-78
2022/05/25 06:36:16;;;;;;;;;31.50;27.50;;;;;;;;5139672;27;13745;-79
2022/05/25 06:38:41;;;;;;;;;24.75;23.50;;;;;;;;5139008;27;12445;-76
2022/05/25 06:41:06;;;;;;;;;36.00;34.00;;;;;;;;5138618;27;12214;-80
2022/05/25 06:43:32;;;;;;;;;33.75;28.75;;;;;;;;5137019;27;13379;-78
2022/05/25 06:45:57;;;;;;;;;28.25;25.50;;;;;;;;5118290;27;12624;-78
2022/05/25 06:48:22;;;;;;;;;31.00;28.00;;;;;;;;5137221;27;13414;-79
2022/05/25 06:50:48;;;;;;;;;28.00;27.50;;;;;;;;5137360;27;13375;-79
2022/05/25 06:53:13;;;;;;;;;26.25;24.50;;;;;;;;5137308;27;13241;-79
2022/05/25 06:55:38;;;;;;;;;19.25;15.75;;;;;;;;5137647;27;10593;-79
2022/05/25 06:58:04;;;;;;;;;24.50;22.25;;;;;;;;5137739;27;13521;-79
2022/05/25 07:00:29;;;;;;;;;18.50;15.25;;;;;;;;5137276;27;12214;-78
2022/05/25 07:02:54;;;;;;;;;20.75;17.00;;;;;;;;5137355;27;10617;-77
2022/05/25 07:05:19;;;;;;;;;16.00;15.00;;;;;;;;5137402;27;13253;-78
2022/05/25 07:07:45;;;;;;;;;14.75;14.50;;;;;;;;5137249;27;12718;-79
2022/05/25 07:10:10;;;;;;;;;23.50;22.25;;;;;;;;5137202;27;11991;-77
2022/05/25 07:12:35;;;;;;;;;27.25;25.75;;;;;;;;5136541;27;14005;-78
2022/05/25 07:15:01;;;;;;;;;38.00;26.00;;;;;;;;5136721;27;10534;-77
2022/05/25 07:17:26;;;;;;;;;34.00;31.25;;;;;;;;5136249;27;13590;-79
2022/05/25 07:19:51;;;;;;;;;32.75;27.50;;;;;;;;5118998;27;12536;-78
2022/05/25 07:22:17;;;;;;;;;25.00;21.50;;;;;;;;5140520;27;12263;-77
2022/05/25 07:24:43;;;;;;;;;28.75;26.25;;;;;;;;5123051;27;15757;-78
2022/05/25 07:27:08;;;;;;;;;29.50;26.00;;;;;;;;5141700;27;11565;-79
2022/05/25 07:29:33;;;;;;;;;31.75;28.25;;;;;;;;5141977;27;11427;-77
2022/05/25 07:32:01;;;;;;;;;21.75;18.00;;;;;;;;5142160;27;13649;-77
2022/05/25 07:34:28;;;;;;;;;32.75;29.00;;;;;;;;5141549;27;13297;-77
2022/05/25 07:36:59;;;;;;;;;18.25;17.25;;;;;;;;5123346;27;11069;-77
2022/05/25 07:39:29;;;;;;;;;30.00;27.75;;;;;;;;5141367;27;13710;-76
2022/05/25 07:41:56;;;;;;;;;38.00;30.75;;;;;;;;5141584;27;12396;-76
2022/05/25 07:44:32;;;;;;;;;26.00;25.50;;;;;;;;5121784;27;11816;-76
2022/05/25 07:46:57;;;;;;;;;20.00;18.33;;;;;;;;5142208;27;13606;-76
2022/05/25 07:49:23;;;;;;;;;18.33;17.33;;;;;;;;5142202;27;12162;-77
2022/05/25 07:51:49;;;;;;;;;25.75;24.00;;;;;;;;5123126;27;13591;-78
2022/05/25 07:54:18;;;;;;;;;12.33;12.00;;;;;;;;5141953;27;13909;-77
2022/05/25 07:56:44;;;;;;;;;17.00;15.67;;;;;;;;5142354;27;12658;-76
2022/05/25 07:59:10;;;;;;;;;30.50;29.50;;;;;;;;5141932;27;11568;-77
2022/05/25 08:07:12;;;;;;;;;18.67;18.67;;;;;;;;5141446;27;8960;-76
2022/05/25 08:09:37;;;;;;;;;21.67;20.00;;;;;;;;5141531;27;11500;-77
2022/05/25 08:12:04;;;;;;;;;17.67;17.00;;;;;;;;5140905;27;13273;-77
2022/05/25 08:14:30;;;;;;;;;35.50;31.50;;;;;;;;5141242;27;10390;-76
2022/05/25 08:16:56;;;;;;;;;17.33;16.33;;;;;;;;5140424;27;14492;-77
2022/05/25 08:19:21;;;;;;;;;20.00;17.00;;;;;;;;5122278;27;16867;-76
2022/05/25 08:21:47;;;;;;;;;31.75;30.50;;;;;;;;5141076;27;13659;-78
2022/05/25 08:24:13;;;;;;;;;22.67;19.67;;;;;;;;5140938;27;14315;-77
2022/05/25 08:26:39;;;;;;;;;19.67;16.00;;;;;;;;5140634;27;13393;-78
2022/05/25 08:29:04;;;;;;;;;18.33;17.33;;;;;;;;5141549;27;13263;-77
2022/05/25 08:31:29;;;;;;;;;17.33;16.33;;;;;;;;5139638;27;11510;-74
2022/05/25 08:33:55;;;;;;;;;30.50;26.50;;;;;;;;5139741;27;8802;-76
2022/05/25 08:36:20;;;;;;;;;31.75;28.00;;;;;;;;5139502;27;13260;-79
2022/05/25 08:38:46;;;;;;;;;12.33;12.33;;;;;;;;5139038;27;12651;-76
2022/05/25 08:41:11;;;;;;;;;15.67;15.00;;;;;;;;5120017;27;13566;-77
2022/05/25 08:43:42;;;;;;;;;15.33;13.67;;;;;;;;5139344;27;11568;-77
2022/05/25 08:46:08;;;;;;;;;26.33;24.67;;;;;;;;5139718;27;11581;-75
2022/05/25 08:48:34;;;;;;;;;14.00;12.00;;;;;;;;5139400;27;11417;-82
2022/05/25 08:51:12;;;;;;;;;48.00;39.00;;;;;;;;5138850;27;14318;-79
2022/05/25 08:53:38;;;;;;;;;46.50;38.00;;;;;;;;5137163;27;11585;-79
2022/05/25 08:56:24;;;;;;;;;11.50;10.75;;;;;;;;5139821;27;10963;-79
2022/05/25 08:58:52;;;;;;;;;16.25;14.75;;;;;;;;5138382;27;14040;-79
2022/05/25 09:01:33;;;;;;;;;26.50;26.25;;;;;;;;5137091;27;10496;-79
2022/05/25 09:04:31;;;;;;;;;14.00;13.25;;;;;;;;5137609;27;12366;-78
2022/05/25 09:06:56;;;;;;;;;14.75;14.75;;;;;;;;5081839;27;12549;-77
2022/05/25 09:09:30;;;;;;;;;14.00;13.00;;;;;;;;5139120;27;9820;-80
2022/05/25 09:11:58;;;;;;;;;11.50;11.50;;;;;;;;5136138;27;10553;-82
2022/05/25 09:14:35;;;;;;;;;13.50;12.25;;;;;;;;5139648;27;11452;-80
2022/05/25 09:17:04;;;;;;;;;13.00;13.00;;;;;;;;5098336;28;11853;-91
2022/05/25 09:19:32;;;;;;;;;70.75;53.25;;;;;;;;5137908;27;10473;-83
2022/05/25 09:21:57;;;;;;;;;47.25;38.75;;;;;;;;5140272;27;13821;-85
2022/05/25 09:24:24;;;;;;;;;47.25;35.75;;;;;;;;5121985;27;15459;-80
2022/05/25 09:26:49;;;;;;;;;39.00;31.00;;;;;;;;5140369;27;8782;-79
2022/05/25 09:29:15;;;;;;;;;16.00;14.67;;;;;;;;5137841;27;13425;-80
2022/05/25 09:31:43;;;;;;;;;12.75;12.75;;;;;;;;5139210;27;13670;-78
2022/05/25 09:34:12;;;;;;;;;15.67;15.00;;;;;;;;5121237;27;13860;-79
2022/05/25 09:36:41;;;;;;;;;32.75;29.75;;;;;;;;5140092;27;11628;-80
2022/05/25 09:39:21;;;;;;;;;35.50;29.75;;;;;;;;5121252;27;15573;-77
2022/05/25 09:41:47;;;;;;;;;33.00;28.25;;;;;;;;5139262;27;9921;-79
2022/05/25 09:44:15;;;;;;;;;31.75;29.00;;;;;;;;5140531;27;10595;-78
2022/05/25 09:46:48;;;;;;;;;35.25;31.00;;;;;;;;5141241;27;11598;-78
2022/05/25 09:49:26;;;;;;;;;32.25;28.75;;;;;;;;5140766;27;10512;-81
2022/05/25 09:51:53;;;;;;;;;30.25;29.50;;;;;;;;5121212;27;15373;-79
2022/05/25 09:54:34;;;;;;;;;33.50;30.00;;;;;;;;5140351;27;11476;-78
2022/05/25 09:57:22;;;;;;;;;27.00;27.00;;;;;;;;5139682;27;12833;-79
2022/05/25 09:59:49;;;;;;;;;25.75;22.75;;;;;;;;5126658;27;12287;-78
2022/05/25 10:02:18;;;;;;;;;31.50;27.50;;;;;;;;5139877;27;11466;-80
2022/05/25 10:04:55;;;;;;;;;16.00;15.67;;;;;;;;5140339;27;13294;-80
2022/05/25 10:07:32;;;;;;;;;31.25;30.00;;;;;;;;5139603;27;14034;-79
2022/05/25 10:10:02;;;;;;;;;25.00;22.00;;;;;;;;5139951;27;13827;-79
2022/05/25 10:12:33;;;;;;;;;24.33;23.00;;;;;;;;5139521;27;12598;-79
2022/05/25 10:15:03;;;;;;;;;32.50;27.25;;;;;;;;5139736;27;11138;-79
2022/05/25 10:17:39;;;;;;;;;28.25;27.25;;;;;;;;5139546;27;13542;-79
2022/05/25 10:20:24;;;;;;;;;32.50;28.50;;;;;;;;5139777;27;10435;-79
2022/05/25 10:23:04;;;;;;;;;17.00;15.00;;;;;;;;5138356;27;13376;-79
2022/05/25 10:25:35;;;;;;;;;19.00;16.33;;;;;;;;5139044;27;14007;-79
2022/05/25 10:28:03;;;;;;;;;20.33;16.67;;;;;;;;5139651;27;11909;-80
2022/05/25 10:38:43;;;;;;;;;16.75;14.25;;;;;;;;5139266;27;11441;-79
2022/05/25 10:44:06;;;;;;;;;16.00;14.67;;;;;;;;5139421;27;12234;-81
2022/05/25 10:46:31;;;;;;;;;16.67;16.00;;;;;;;;5139876;27;13537;-81
2022/05/25 10:49:15;;;;;;;;;14.33;13.00;;;;;;;;5139857;27;10561;-81
2022/05/25 10:51:47;;;;;;;;;18.67;16.33;;;;;;;;5139590;27;10767;-81
2022/05/25 10:57:21;;;;;;;;;15.67;15.67;;;;;;;;5143116;27;12213;-81
2022/05/25 10:59:46;;;;;;;;;26.00;21.33;;;;;;;;5143052;27;13323;-80
2022/05/25 11:02:23;;;;;;;;;15.67;15.67;;;;;;;;5124205;27;15646;-80
2022/05/25 11:05:00;;;;;;;;;16.00;16.00;;;;;;;;5142475;27;14430;-81
2022/05/25 11:07:32;;;;;;;;;17.00;17.00;;;;;;;;5142715;27;11844;-81
2022/05/25 11:10:16;;;;;;;;;23.00;22.00;;;;;;;;5142815;27;9219;-80
2022/05/25 11:12:51;;;;;;;;;30.00;29.00;;;;;;;;5123794;27;12655;-81
2022/05/25 11:15:31;;;;;;;;;18.33;17.33;;;;;;;;5123589;27;11088;-77
2022/05/25 11:17:59;;;;;;;;;17.33;15.00;;;;;;;;5141040;27;13310;-77
2022/05/25 11:20:29;;;;;;;;;23.00;21.33;;;;;;;;5140468;27;11508;-77
2022/05/25 11:23:13;;;;;;;;;16.33;15.67;;;;;;;;5140839;27;13367;-76
2022/05/25 11:25:51;;;;;;;;;18.67;16.00;;;;;;;;5141035;27;14555;-76
2022/05/25 11:28:26;;;;;;;;;17.00;15.67;;;;;;;;5140952;27;11806;-80
2022/05/25 11:31:06;;;;;;;;;19.33;18.67;;;;;;;;5141491;27;11448;-77
2022/05/25 11:33:44;;;;;;;;;18.67;18.33;;;;;;;;5118437;27;10619;-77
2022/05/25 11:36:25;;;;;;;;;16.33;16.33;;;;;;;;5139348;27;12250;-78
2022/05/25 11:38:57;;;;;;;;;18.67;17.00;;;;;;;;5122262;27;13841;-79
2022/05/25 11:41:36;;;;;;;;;16.00;16.00;;;;;;;;5135315;27;11874;-78
2022/05/25 11:44:18;;;;;;;;;17.00;17.00;;;;;;;;5128297;27;12814;-79
2022/05/25 11:46:45;;;;;;;;;15.67;15.67;;;;;;;;5119204;27;10669;-79
2022/05/25 11:49:29;;;;;;;;;16.00;16.00;;;;;;;;5140938;27;11691;-81
2022/05/25 11:52:13;;;;;;;;;16.33;14.00;;;;;;;;5139900;27;12171;-81
2022/05/25 11:54:58;;;;;;;;;14.67;14.33;;;;;;;;5140701;27;10888;-80
2022/05/25 11:57:42;;;;;;;;;17.00;17.00;;;;;;;;5139064;27;11551;-78
2022/05/25 12:00:07;;;;;;;;;20.33;18.33;;;;;;;;5121125;27;13494;-78
2022/05/25 12:02:39;;;;;;;;;19.67;16.33;;;;;;;;5140450;27;13730;-77
2022/05/25 12:05:10;;;;;;;;;22.75;22.75;;;;;;;;5139654;27;12341;-79
2022/05/25 12:07:55;;;;;;;;;19.00;17.00;;;;;;;;5137770;27;12893;-78
2022/05/25 12:10:30;;;;;;;;;22.00;17.00;;;;;;;;5127886;27;13961;-79
2022/05/25 12:13:14;;;;;;;;;16.00;16.00;;;;;;;;5140183;27;9139;-80
2022/05/25 12:15:59;;;;;;;;;20.00;19.00;;;;;;;;5137389;27;10736;-79
2022/05/25 12:18:30;;;;;;;;;18.00;18.00;;;;;;;;5135781;27;10995;-80
2022/05/25 12:21:13;;;;;;;;;25.00;24.00;;;;;;;;5139811;27;10585;-79
2022/05/25 12:23:40;;;;;;;;;27.25;25.75;;;;;;;;5137019;27;10720;-77
2022/05/25 12:26:09;;;;;;;;;28.00;27.25;;;;;;;;5139778;27;11495;-79
2022/05/25 12:28:38;;;;;;;;;32.00;29.75;;;;;;;;5121086;27;13966;-79
2022/05/25 12:31:07;;;;;;;;;18.67;17.67;;;;;;;;5138937;27;12498;-79
2022/05/25 12:33:33;;;;;;;;;15.33;14.33;;;;;;;;5139286;27;13511;-79
2022/05/25 12:36:05;;;;;;;;;30.75;26.75;;;;;;;;5139606;27;11478;-79
2022/05/25 12:38:31;;;;;;;;;31.00;29.00;;;;;;;;5140589;27;12829;-79
2022/05/25 12:41:16;;;;;;;;;32.50;29.75;;;;;;;;5141117;27;11712;-76
2022/05/25 12:43:44;;;;;;;;;34.75;29.50;;;;;;;;5140710;27;11737;-76
2022/05/25 12:48:59;;;;;;;;;24.50;23.00;;;;;;;;5138241;27;13245;-79
2022/05/25 12:51:33;;;;;;;;;14.33;14.00;;;;;;;;5140172;27;13883;-78
2022/05/25 12:54:01;;;;;;;;;22.33;19.33;;;;;;;;5137368;27;12344;-78
2022/05/25 12:56:27;;;;;;;;;18.00;17.00;;;;;;;;5139612;27;14559;-77
2022/05/25 12:58:54;;;;;;;;;16.67;14.33;;;;;;;;5139463;27;13322;-77
2022/05/25 13:01:22;;;;;;;;;17.33;16.00;;;;;;;;5140461;27;11776;-78
2022/05/25 13:03:47;;;;;;;;;15.00;15.00;;;;;;;;5139677;27;11434;-78
2022/05/25 13:06:42;;;;;;;;;16.67;15.00;;;;;;;;5139853;27;10392;-78
2022/05/25 13:09:17;;;;;;;;;25.67;24.00;;;;;;;;5047096;27;10300;-77
2022/05/25 13:11:42;;;;;;;;;14.67;13.00;;;;;;;;5117967;27;11035;-82
2022/05/25 13:14:16;;;;;;;;;13.33;13.00;;;;;;;;5140024;27;10612;-77
2022/05/25 13:16:51;;;;;;;;;17.00;14.33;;;;;;;;5136791;27;10303;-77
2022/05/25 13:19:16;;;;;;;;;14.50;14.25;;;;;;;;5136527;27;11443;-76
2022/05/25 13:21:43;;;;;;;;;13.00;12.33;;;;;;;;5139687;27;9102;-77
2022/05/25 13:24:19;;;;;;;;;17.67;15.00;;;;;;;;5140101;27;10471;-78
2022/05/25 13:26:55;;;;;;;;;16.00;12.00;;;;;;;;5138520;27;11647;-78
2022/05/25 13:29:50;;;;;;;;;11.75;11.75;;;;;;;;5137297;27;12257;-77
2022/05/25 13:32:24;;;;;;;;;14.33;14.33;;;;;;;;5045582;28;11447;-79
2022/05/25 13:34:49;;;;;;;;;9.50;8.75;;;;;;;;5120150;28;10429;-82
2022/05/25 13:37:14;;;;;;;;;12.33;12.00;;;;;;;;5135808;27;23816;-78
2022/05/25 13:39:41;;;;;;;;;32.25;29.25;;;;;;;;5139084;27;22295;-78
2022/05/25 13:42:26;;;;;;;;;26.00;25.00;;;;;;;;5135806;27;13325;-78
2022/05/25 13:44:55;;;;;;;;;16.33;15.33;;;;;;;;5138710;27;13716;-78
2022/05/25 13:47:22;;;;;;;;;16.33;16.33;;;;;;;;5120317;27;15670;-79
2022/05/25 13:49:49;;;;;;;;;29.75;27.50;;;;;;;;5138644;27;9021;-77
2022/05/25 13:52:17;;;;;;;;;16.67;16.67;;;;;;;;5139426;27;13379;-77
2022/05/25 13:54:45;;;;;;;;;15.50;13.50;;;;;;;;5138244;27;13849;-80
2022/05/25 13:57:31;;;;;;;;;11.00;10.75;;;;;;;;5135181;27;11986;-79
2022/05/25 13:59:59;;;;;;;;;11.00;11.00;;;;;;;;5116685;27;11684;-78
2022/05/25 14:02:30;;;;;;;;;8.00;8.00;;;;;;;;5138159;27;9010;-77
2022/05/25 14:05:01;;;;;;;;;12.00;10.75;;;;;;;;5137783;27;23646;-79
2022/05/25 14:07:37;;;;;;;;;9.00;7.25;;;;;;;;5136870;27;23548;-78
2022/05/25 14:13:40;;;;;;;;;11.25;11.25;;;;;;;;5136967;27;21368;-78
2022/05/25 14:16:14;;;;;;;;;11.00;9.50;;;;;;;;5034683;28;23248;-78
2022/05/25 14:18:58;;;;;;;;;12.00;12.00;;;;;;;;5035288;28;22020;-78
2022/05/25 14:21:42;;;;;;;;;11.00;11.00;;;;;;;;5035357;28;22066;-78
2022/05/25 14:24:13;;;;;;;;;11.50;11.00;;;;;;;;5035592;28;9101;-78
2022/05/25 14:26:43;;;;;;;;;14.00;12.00;;;;;;;;5035519;28;8754;-78
2022/05/25 14:29:11;;;;;;;;;8.00;8.00;;;;;;;;5037059;28;10948;-78
2022/05/25 14:31:45;;;;;;;;;10.75;10.00;;;;;;;;5129092;27;22227;-78
2022/05/25 14:34:12;;;;;;;;;13.25;10.25;;;;;;;;5142542;27;22502;-78
2022/05/25 14:36:38;;;;;;;;;10.00;10.00;;;;;;;;5143547;27;11580;-77
2022/05/25 14:39:04;;;;;;;;;13.00;13.00;;;;;;;;5143472;27;11869;-76
2022/05/25 14:41:42;;;;;;;;;23.25;20.75;;;;;;;;5124914;27;10780;-80
2022/05/25 14:46:49;;;;;;;;;10.00;10.00;;;;;;;;5117050;27;1499573;-76
2022/05/25 14:49:16;;;;;;;;;9.25;8.50;;;;;;;;5157102;27;23579;-78
2022/05/25 14:51:45;;;;;;;;;11.00;9.00;;;;;;;;5156707;27;22240;-77
2022/05/25 14:54:12;;;;;;;;;13.75;9.75;;;;;;;;5154963;27;22820;-77
2022/05/25 14:56:38;;;;;;;;;12.50;12.25;;;;;;;;5157157;27;10565;-76
2022/05/25 14:59:03;;;;;;;;;13.00;10.33;;;;;;;;5156406;27;21418;-77
2022/05/25 15:01:32;;;;;;;;;9.00;9.00;;;;;;;;5157275;27;10807;-82
2022/05/25 15:03:57;;;;;;;;;13.00;11.00;;;;;;;;5156937;27;22400;-79
2022/05/25 15:06:24;;;;;;;;;10.00;10.00;;;;;;;;5156010;27;22239;-83
2022/05/25 15:08:52;;;;;;;;;12.25;11.25;;;;;;;;5156639;27;8771;-77
2022/05/25 15:11:35;;;;;;;;;15.25;10.25;;;;;;;;5156314;27;11442;-81
2022/05/25 15:20:23;;;;;;;;;24.00;21.67;;;;;;;;5153787;27;16396;-76
2022/05/25 15:22:57;;;;;;;;;15.50;15.00;;;;;;;;5050469;28;22626;-78